createdAt,value
2019-01-06T00:00:17.702Z,102550.02
2019-01-06T00:01:49.203Z,102549.66
2019-01-06T00:03:16.857Z,102548.86
2019-01-06T00:04:42.330Z,102553.91
2019-01-06T00:06:07.917Z,102555.18
2019-01-06T00:07:36.521Z,102549.66
2019-01-06T00:09:01.548Z,102550.50
2019-01-06T00:10:27.398Z,102552.23
2019-01-06T00:12:03.944Z,102552.75
2019-01-06T00:13:32.835Z,102553.94
2019-01-06T00:15:01.787Z,102551.23
2019-01-06T00:16:25.909Z,102548.72
2019-01-06T00:17:47.527Z,102542.28
2019-01-06T00:19:12.557Z,102544.47
2019-01-06T00:20:36.850Z,102541.03
2019-01-06T00:22:02.925Z,102539.30
2019-01-06T00:23:33.668Z,102540.64
2019-01-06T00:25:01.996Z,102546.20
2019-01-06T00:26:30.301Z,102542.73
2019-01-06T00:28:01.875Z,102538.45
2019-01-06T00:29:43.236Z,102546.95
2019-01-06T00:31:13.169Z,102539.70
2019-01-06T00:32:32.431Z,102539.24
2019-01-06T00:34:03.874Z,102540.55
2019-01-06T00:35:27.048Z,102537.55
2019-01-06T00:36:51.670Z,102544.83
2019-01-06T00:38:16.110Z,102539.24
2019-01-06T00:39:47.774Z,102546.47
2019-01-06T00:41:13.581Z,102549.51
2019-01-06T00:42:48.519Z,102544.80
2019-01-06T00:44:17.545Z,102548.63
2019-01-06T00:45:43.031Z,102555.82
2019-01-06T00:47:07.657Z,102546.53
2019-01-06T00:48:39.253Z,102552.94
2019-01-06T00:50:03.645Z,102552.48
2019-01-06T00:51:29.494Z,102553.84
2019-01-06T00:52:55.012Z,102552.97
2019-01-06T00:54:20.016Z,102552.11
2019-01-06T00:55:45.553Z,102552.88
2019-01-06T00:57:17.692Z,102555.82
2019-01-06T00:58:43.163Z,102550.78
2019-01-06T01:00:07.164Z,102555.00
2019-01-06T01:01:36.550Z,102549.91
2019-01-06T01:03:11.202Z,102556.39
2019-01-06T01:04:35.239Z,102555.95
2019-01-06T01:06:16.115Z,102558.47
2019-01-06T01:07:36.239Z,102556.77
2019-01-06T01:09:00.696Z,102562.71
2019-01-06T01:10:26.960Z,102560.12
2019-01-06T01:11:58.583Z,102557.16
2019-01-06T01:13:36.057Z,102551.72
2019-01-06T01:15:04.411Z,102557.16
2019-01-06T01:16:28.847Z,102553.75
2019-01-06T01:18:06.413Z,102557.55
2019-01-06T01:19:31.986Z,102562.69
2019-01-06T01:21:01.277Z,102555.73
2019-01-06T01:22:27.178Z,102565.53
2019-01-06T01:23:49.141Z,102563.95
2019-01-06T01:25:14.981Z,102558.38
2019-01-06T01:26:39.668Z,102567.30
2019-01-06T01:28:08.196Z,102560.92
2019-01-06T01:29:37.219Z,102558.44
2019-01-06T01:31:01.689Z,102568.97
2019-01-06T01:32:27.528Z,102560.86
2019-01-06T01:33:51.652Z,102568.87
2019-01-06T01:35:16.197Z,102569.00
2019-01-06T01:36:47.683Z,102572.39
2019-01-06T01:38:28.899Z,102567.62
2019-01-06T01:39:55.017Z,102571.48
2019-01-06T01:41:29.403Z,102569.78
2019-01-06T01:42:54.272Z,102571.09
2019-01-06T01:44:18.365Z,102574.52
2019-01-06T01:45:42.475Z,102570.75
2019-01-06T01:47:24.188Z,102573.34
2019-01-06T01:48:49.020Z,102579.31
2019-01-06T01:50:13.074Z,102579.23
2019-01-06T01:51:36.843Z,102569.45
2019-01-06T01:53:11.517Z,102579.63
2019-01-06T01:54:40.496Z,102574.09
2019-01-06T01:56:06.445Z,102577.83
2019-01-06T01:57:44.383Z,102575.37
2019-01-06T01:59:16.475Z,102577.08
2019-01-06T02:00:45.032Z,102580.90
2019-01-06T02:02:23.255Z,102577.01
2019-01-06T02:03:42.951Z,102577.50
2019-01-06T02:05:08.864Z,102572.34
2019-01-06T02:06:39.270Z,102579.13
2019-01-06T02:08:17.791Z,102577.83
2019-01-06T02:09:49.436Z,102576.19
2019-01-06T02:11:13.736Z,102585.08
2019-01-06T02:12:37.745Z,102582.53
2019-01-06T02:14:02.919Z,102579.23
2019-01-06T02:15:20.334Z,102591.16
2019-01-06T02:16:46.138Z,102581.81
2019-01-06T02:18:23.048Z,102585.20
2019-01-06T02:19:48.634Z,102580.53
2019-01-06T02:21:17.429Z,102586.48
2019-01-06T02:22:41.697Z,102586.06
2019-01-06T02:24:19.985Z,102584.33
2019-01-06T02:25:45.568Z,102587.80
2019-01-06T02:27:26.498Z,102583.51
2019-01-06T02:28:58.135Z,102585.23
2019-01-06T02:30:25.936Z,102581.71
2019-01-06T02:31:54.342Z,102586.36
2019-01-06T02:33:35.101Z,102587.33
2019-01-06T02:35:03.495Z,102585.64
2019-01-06T02:36:32.248Z,102588.64
2019-01-06T02:38:00.838Z,102590.31
2019-01-06T02:39:28.533Z,102592.21
2019-01-06T02:40:53.022Z,102590.48
2019-01-06T02:42:18.516Z,102589.27
2019-01-06T02:43:44.004Z,102591.33
2019-01-06T02:45:09.963Z,102592.64
2019-01-06T02:46:41.574Z,102592.67
2019-01-06T02:48:05.658Z,102593.52
2019-01-06T02:49:31.147Z,102596.10
2019-01-06T02:51:12.268Z,102593.65
2019-01-06T02:52:35.370Z,102597.08
2019-01-06T02:53:59.845Z,102585.15
2019-01-06T02:55:29.130Z,102598.69
2019-01-06T02:56:53.352Z,102593.09
2019-01-06T02:58:33.974Z,102593.19
2019-01-06T03:00:17.593Z,102592.73
2019-01-06T03:01:41.932Z,102596.56
2019-01-06T03:03:25.762Z,102594.56
2019-01-06T03:04:57.104Z,102591.09
2019-01-06T03:06:34.308Z,102596.13
2019-01-06T03:08:02.603Z,102588.48
2019-01-06T03:09:35.084Z,102592.41
2019-01-06T03:11:03.492Z,102591.52
2019-01-06T03:12:47.771Z,102593.45
2019-01-06T03:14:12.757Z,102587.11
2019-01-06T03:15:37.184Z,102591.46
2019-01-06T03:17:15.875Z,102593.13
2019-01-06T03:18:38.079Z,102591.06
2019-01-06T03:20:12.885Z,102593.68
2019-01-06T03:21:42.311Z,102588.91
2019-01-06T03:23:14.371Z,102590.09
2019-01-06T03:24:43.294Z,102594.47
2019-01-06T03:26:20.929Z,102585.94
2019-01-06T03:27:43.357Z,102587.27
2019-01-06T03:29:07.910Z,102589.76
2019-01-06T03:30:42.930Z,102595.28
2019-01-06T03:32:02.931Z,102588.48
2019-01-06T03:33:26.942Z,102584.72
2019-01-06T03:34:58.720Z,102585.05
2019-01-06T03:36:23.541Z,102586.72
2019-01-06T03:37:49.065Z,102586.72
2019-01-06T03:39:17.684Z,102585.80
2019-01-06T03:40:42.291Z,102585.05
2019-01-06T03:42:06.457Z,102583.35
2019-01-06T03:43:47.339Z,102588.45
2019-01-06T03:45:11.848Z,102588.45
2019-01-06T03:46:46.627Z,102582.89
2019-01-06T03:48:10.982Z,102574.66
2019-01-06T03:49:52.173Z,102587.05
2019-01-06T03:51:26.514Z,102582.41
2019-01-06T03:52:51.026Z,102575.67
2019-01-06T03:54:15.831Z,102581.13
2019-01-06T03:55:50.182Z,102579.37
2019-01-06T03:57:14.770Z,102581.10
2019-01-06T03:58:53.355Z,102579.82
2019-01-06T04:00:26.406Z,102573.42
2019-01-06T04:01:50.719Z,102575.51
2019-01-06T04:03:15.633Z,102574.14
2019-01-06T04:04:40.134Z,102569.44
2019-01-06T04:06:14.839Z,102567.73
2019-01-06T04:07:39.779Z,102568.48
2019-01-06T04:09:12.043Z,102568.97
2019-01-06T04:10:55.997Z,102567.64
2019-01-06T04:12:28.053Z,102571.42
2019-01-06T04:14:02.089Z,102567.67
2019-01-06T04:15:26.561Z,102569.80
2019-01-06T04:16:53.660Z,102562.92
2019-01-06T04:18:31.528Z,102568.48
2019-01-06T04:19:56.302Z,102570.61
2019-01-06T04:21:25.403Z,102571.42
2019-01-06T04:22:49.974Z,102569.23
2019-01-06T04:24:15.022Z,102565.13
2019-01-06T04:25:39.856Z,102568.58
2019-01-06T04:27:04.786Z,102564.37
2019-01-06T04:28:29.441Z,102565.31
2019-01-06T04:30:00.924Z,102574.59
2019-01-06T04:31:29.528Z,102569.53
2019-01-06T04:32:54.247Z,102569.47
2019-01-06T04:34:22.614Z,102562.66
2019-01-06T04:35:46.726Z,102564.04
2019-01-06T04:37:21.551Z,102573.02
2019-01-06T04:39:05.266Z,102570.48
2019-01-06T04:40:37.033Z,102576.00
2019-01-06T04:42:09.000Z,102573.42
2019-01-06T04:43:28.452Z,102572.56
2019-01-06T04:44:57.424Z,102567.83
2019-01-06T04:46:35.120Z,102565.80
2019-01-06T04:48:00.040Z,102562.41
2019-01-06T04:49:24.514Z,102568.68
2019-01-06T04:50:50.072Z,102572.14
2019-01-06T04:52:14.951Z,102569.59
2019-01-06T04:53:33.010Z,102572.05
2019-01-06T04:54:57.673Z,102574.23
2019-01-06T04:56:35.290Z,102577.24
2019-01-06T04:57:59.783Z,102571.72
2019-01-06T04:59:40.368Z,102572.11
2019-01-06T05:01:04.674Z,102577.61
2019-01-06T05:02:42.513Z,102573.75
2019-01-06T05:04:17.519Z,102573.78
2019-01-06T05:05:45.818Z,102574.66
2019-01-06T05:07:17.961Z,102576.33
2019-01-06T05:08:55.942Z,102576.30
2019-01-06T05:10:21.308Z,102573.42
2019-01-06T05:11:49.782Z,102570.97
2019-01-06T05:13:21.163Z,102571.63
2019-01-06T05:14:45.858Z,102569.47
2019-01-06T05:16:10.628Z,102569.95
2019-01-06T05:17:45.268Z,102569.17
2019-01-06T05:19:10.806Z,102561.09
2019-01-06T05:20:39.033Z,102566.95
2019-01-06T05:22:03.260Z,102566.63
2019-01-06T05:23:44.063Z,102572.56
2019-01-06T05:25:27.948Z,102563.77
2019-01-06T05:26:55.868Z,102570.50
2019-01-06T05:28:17.928Z,102574.70
2019-01-06T05:29:49.248Z,102575.15
2019-01-06T05:31:04.821Z,102574.69
2019-01-06T05:32:28.987Z,102575.19
2019-01-06T05:33:53.824Z,102574.66
2019-01-06T05:35:25.947Z,102571.23
2019-01-06T05:36:54.373Z,102579.27
2019-01-06T05:38:32.521Z,102577.66
2019-01-06T05:40:13.745Z,102571.75
2019-01-06T05:41:38.556Z,102581.26
2019-01-06T05:43:02.755Z,102586.72
2019-01-06T05:44:40.842Z,102581.26
2019-01-06T05:46:09.404Z,102581.66
2019-01-06T05:47:35.905Z,102587.08
2019-01-06T05:49:07.306Z,102582.89
2019-01-06T05:50:33.831Z,102588.91
2019-01-06T05:52:18.284Z,102587.20
2019-01-06T05:53:42.826Z,102585.51
2019-01-06T05:55:07.644Z,102587.23
2019-01-06T05:56:33.178Z,102595.71
2019-01-06T05:57:58.745Z,102588.75
2019-01-06T05:59:30.347Z,102595.25
2019-01-06T06:00:54.682Z,102597.96
2019-01-06T06:02:20.530Z,102591.88
2019-01-06T06:03:58.999Z,102599.11
2019-01-06T06:05:36.778Z,102595.97
2019-01-06T06:07:11.356Z,102593.03
2019-01-06T06:08:35.131Z,102602.34
2019-01-06T06:09:59.511Z,102597.77
2019-01-06T06:11:23.701Z,102594.38
2019-01-06T06:12:48.078Z,102600.22
2019-01-06T06:14:16.818Z,102599.77
2019-01-06T06:15:54.666Z,102602.28
2019-01-06T06:17:20.173Z,102604.05
2019-01-06T06:18:40.305Z,102609.96
2019-01-06T06:20:14.983Z,102606.56
2019-01-06T06:23:22.149Z,102610.84
2019-01-06T06:24:46.927Z,102606.10
2019-01-06T06:26:11.587Z,102612.97
2019-01-06T06:27:41.877Z,102615.52
2019-01-06T06:29:12.680Z,102613.49
2019-01-06T06:30:37.823Z,102618.85
2019-01-06T06:32:14.563Z,102615.84
2019-01-06T06:33:43.015Z,102618.92
2019-01-06T06:35:07.533Z,102615.06
2019-01-06T06:36:31.753Z,102616.37
2019-01-06T06:38:03.549Z,102619.70
2019-01-06T06:39:44.453Z,102619.67
2019-01-06T06:41:25.272Z,102619.31
2019-01-06T06:42:54.032Z,102615.42
2019-01-06T06:44:18.605Z,102617.44
2019-01-06T06:45:44.180Z,102621.23
2019-01-06T06:47:08.756Z,102623.78
2019-01-06T06:48:40.413Z,102621.20
2019-01-06T06:50:18.773Z,102622.86
2019-01-06T06:51:43.245Z,102631.78
2019-01-06T06:53:07.731Z,102625.88
2019-01-06T06:54:45.676Z,102638.30
2019-01-06T06:56:17.203Z,102641.73
2019-01-06T06:58:25.486Z,102636.66
2019-01-06T06:59:51.045Z,102635.81
2019-01-06T07:01:43.153Z,102643.46
2019-01-06T07:03:09.467Z,102644.31
2019-01-06T07:04:34.061Z,102643.95
2019-01-06T07:06:13.229Z,102646.80
2019-01-06T07:07:45.032Z,102643.78
2019-01-06T07:09:04.291Z,102646.02
2019-01-06T07:10:28.698Z,102644.70
2019-01-06T07:11:53.150Z,102648.23
2019-01-06T07:13:34.403Z,102649.94
2019-01-06T07:14:59.024Z,102651.77
2019-01-06T07:17:14.906Z,102648.31
2019-01-06T07:18:43.996Z,102649.97
2019-01-06T07:20:21.617Z,102653.23
2019-01-06T07:21:47.879Z,102658.83
2019-01-06T07:23:19.631Z,102657.23
2019-01-06T07:24:44.060Z,102657.20
2019-01-06T07:26:12.795Z,102656.70
2019-01-06T07:27:53.737Z,102655.82
2019-01-06T07:29:31.157Z,102658.27
2019-01-06T07:30:53.788Z,102655.58
2019-01-06T07:32:37.780Z,102657.70
2019-01-06T07:34:00.039Z,102658.66
2019-01-06T07:35:44.293Z,102658.20
2019-01-06T07:37:08.673Z,102662.80
2019-01-06T07:38:31.587Z,102663.11
2019-01-06T07:40:15.214Z,102663.50
2019-01-06T07:41:47.256Z,102664.81
2019-01-06T07:43:07.466Z,102668.14
2019-01-06T07:44:41.877Z,102671.50
2019-01-06T07:46:10.214Z,102670.62
2019-01-06T07:47:34.958Z,102670.97
2019-01-06T07:49:00.497Z,102673.02
2019-01-06T07:50:32.091Z,102668.73
2019-01-06T07:52:03.761Z,102666.45
2019-01-06T07:53:26.205Z,102672.83
2019-01-06T07:54:58.433Z,102670.74
2019-01-06T07:56:23.166Z,102674.06
2019-01-06T07:57:52.563Z,102674.95
2019-01-06T07:59:14.300Z,102677.38
2019-01-06T08:00:37.430Z,102680.05
2019-01-06T08:02:03.312Z,102682.48
2019-01-06T08:03:27.603Z,102682.12
2019-01-06T08:04:51.968Z,102683.48
2019-01-06T08:06:16.138Z,102688.23
2019-01-06T08:07:43.350Z,102686.99
2019-01-06T08:09:20.907Z,102687.95
2019-01-06T08:10:45.557Z,102683.56
2019-01-06T08:12:05.699Z,102686.14
2019-01-06T08:13:37.008Z,102694.25
2019-01-06T08:15:01.188Z,102691.39
2019-01-06T08:16:25.597Z,102691.00
2019-01-06T08:17:59.422Z,102694.44
2019-01-06T08:19:32.894Z,102697.45
2019-01-06T08:21:17.006Z,102699.76
2019-01-06T08:22:41.189Z,102701.92
2019-01-06T08:24:05.856Z,102703.23
2019-01-06T08:25:44.191Z,102703.62
2019-01-06T08:27:22.172Z,102708.90
2019-01-06T08:28:46.413Z,102711.66
2019-01-06T08:30:10.604Z,102711.30
2019-01-06T08:31:36.788Z,102714.70
2019-01-06T08:33:00.964Z,102710.53
2019-01-06T08:34:26.765Z,102712.23
2019-01-06T08:35:55.412Z,102713.92
2019-01-06T08:37:30.689Z,102709.75
2019-01-06T08:38:55.311Z,102718.17
2019-01-06T08:40:20.898Z,102718.17
2019-01-06T08:41:45.438Z,102717.33
2019-01-06T08:43:09.838Z,102716.86
2019-01-06T08:44:47.783Z,102722.00
2019-01-06T08:46:13.374Z,102717.39
2019-01-06T08:47:36.313Z,102721.72
2019-01-06T08:49:14.550Z,102720.48
2019-01-06T08:50:38.733Z,102717.55
2019-01-06T08:52:09.873Z,102722.18
2019-01-06T08:53:24.291Z,102717.47
2019-01-06T08:54:47.783Z,102722.92
2019-01-06T08:56:12.255Z,102720.95
2019-01-06T08:57:41.067Z,102723.95
2019-01-06T08:59:18.607Z,102718.39
2019-01-06T09:00:48.332Z,102721.55
2019-01-06T09:02:32.771Z,102724.41
2019-01-06T09:03:54.034Z,102723.25
2019-01-06T09:05:22.314Z,102725.37
2019-01-06T09:06:46.764Z,102721.86
2019-01-06T09:08:15.938Z,102729.23
2019-01-06T09:09:47.761Z,102728.45
2019-01-06T09:11:21.454Z,102732.38
2019-01-06T09:12:47.711Z,102726.44
2019-01-06T09:14:12.220Z,102730.69
2019-01-06T09:15:36.623Z,102725.55
2019-01-06T09:17:20.713Z,102728.06
2019-01-06T09:18:50.113Z,102728.63
2019-01-06T09:20:16.245Z,102729.19
2019-01-06T09:21:39.215Z,102730.11
2019-01-06T09:23:10.923Z,102730.14
2019-01-06T09:24:35.047Z,102732.48
2019-01-06T09:25:59.654Z,102740.17
2019-01-06T09:27:25.259Z,102738.09
2019-01-06T09:29:06.557Z,102743.90
2019-01-06T09:30:27.355Z,102748.22
2019-01-06T09:32:02.126Z,102751.16
2019-01-06T09:33:21.355Z,102752.86
2019-01-06T09:34:50.244Z,102748.58
2019-01-06T09:36:20.485Z,102747.83
2019-01-06T09:37:55.709Z,102753.42
2019-01-06T09:39:30.394Z,102758.53
2019-01-06T09:41:05.642Z,102756.69
2019-01-06T09:42:30.293Z,102755.55
2019-01-06T09:44:08.747Z,102749.10
2019-01-06T09:45:34.767Z,102753.75
2019-01-06T09:47:09.518Z,102757.25
2019-01-06T09:48:34.299Z,102751.02
2019-01-06T09:49:59.294Z,102751.02
2019-01-06T09:51:24.058Z,102752.00
2019-01-06T09:52:45.990Z,102751.61
2019-01-06T09:54:11.214Z,102750.86
2019-01-06T09:55:33.084Z,102747.78
2019-01-06T09:57:02.178Z,102759.33
2019-01-06T09:58:26.891Z,102763.58
2019-01-06T09:59:55.835Z,102760.61
2019-01-06T10:01:27.568Z,102753.87
2019-01-06T10:02:52.560Z,102756.13
2019-01-06T10:04:22.111Z,102762.97
2019-01-06T10:05:59.592Z,102758.65
2019-01-06T10:07:40.963Z,102765.95
2019-01-06T10:09:05.332Z,102760.77
2019-01-06T10:10:42.938Z,102764.67
2019-01-06T10:12:15.138Z,102760.91
2019-01-06T10:13:39.675Z,102762.12
2019-01-06T10:15:03.947Z,102766.37
2019-01-06T10:16:35.483Z,102764.17
2019-01-06T10:18:00.475Z,102770.03
2019-01-06T10:19:25.986Z,102765.87
2019-01-06T10:20:54.541Z,102767.29
2019-01-06T10:22:20.501Z,102771.15
2019-01-06T10:23:44.628Z,102770.62
2019-01-06T10:25:13.735Z,102765.91
2019-01-06T10:26:38.130Z,102764.28
2019-01-06T10:28:02.434Z,102765.13
2019-01-06T10:29:34.492Z,102763.84
2019-01-06T10:30:59.007Z,102768.04
2019-01-06T10:32:22.313Z,102769.70
2019-01-06T10:33:51.006Z,102770.23
2019-01-06T10:35:15.640Z,102769.73
2019-01-06T10:36:40.533Z,102768.00
2019-01-06T10:38:04.774Z,102771.67
2019-01-06T10:39:29.712Z,102771.67
2019-01-06T10:41:10.769Z,102769.97
2019-01-06T10:42:43.773Z,102770.03
2019-01-06T10:44:01.822Z,102774.71
2019-01-06T10:45:34.155Z,102771.44
2019-01-06T10:47:18.855Z,102774.06
2019-01-06T10:48:44.987Z,102775.92
2019-01-06T10:50:21.914Z,102778.13
2019-01-06T10:51:47.528Z,102778.87
2019-01-06T10:53:12.143Z,102775.20
2019-01-06T10:54:41.244Z,102781.97
2019-01-06T10:56:08.083Z,102787.22
2019-01-06T10:57:39.875Z,102784.98
2019-01-06T10:59:12.710Z,102791.73
2019-01-06T11:00:56.571Z,102791.01
2019-01-06T11:02:22.220Z,102790.20
2019-01-06T11:03:56.997Z,102799.59
2019-01-06T11:05:23.063Z,102792.28
2019-01-06T11:06:52.252Z,102795.66
2019-01-06T11:08:18.000Z,102793.42
2019-01-06T11:09:47.952Z,102796.11
2019-01-06T11:11:26.271Z,102798.44
2019-01-06T11:12:50.481Z,102798.84
2019-01-06T11:14:34.275Z,102801.03
2019-01-06T11:16:02.454Z,102799.94
2019-01-06T11:17:34.288Z,102805.89
2019-01-06T11:19:09.112Z,102799.38
2019-01-06T11:20:35.069Z,102800.66
2019-01-06T11:21:59.700Z,102797.36
2019-01-06T11:23:25.660Z,102802.39
2019-01-06T11:24:55.018Z,102799.52
2019-01-06T11:26:36.159Z,102795.33
2019-01-06T11:28:05.700Z,102796.15
2019-01-06T11:29:43.500Z,102799.23
2019-01-06T11:31:21.173Z,102797.62
2019-01-06T11:33:05.086Z,102792.55
2019-01-06T11:34:29.675Z,102796.45
2019-01-06T11:35:53.897Z,102793.97
2019-01-06T11:37:19.855Z,102793.60
2019-01-06T11:39:01.806Z,102791.23
2019-01-06T11:40:27.075Z,102784.33
2019-01-06T11:42:08.234Z,102783.21
2019-01-06T11:43:36.836Z,102785.73
2019-01-06T11:45:20.677Z,102781.08
2019-01-06T11:46:42.141Z,102785.89
2019-01-06T11:48:10.686Z,102784.55
2019-01-06T11:49:36.230Z,102785.86
2019-01-06T11:51:14.131Z,102787.08
2019-01-06T11:52:42.927Z,102784.86
2019-01-06T11:54:21.554Z,102783.64
2019-01-06T11:55:50.745Z,102784.30
2019-01-06T11:57:35.009Z,102781.42
2019-01-06T11:58:55.039Z,102785.91
2019-01-06T12:00:24.691Z,102781.13
2019-01-06T12:01:53.313Z,102776.84
2019-01-06T12:03:17.965Z,102776.22
2019-01-06T12:04:43.501Z,102774.25
2019-01-06T12:06:09.182Z,102772.09
2019-01-06T12:07:44.219Z,102773.53
2019-01-06T12:09:13.124Z,102774.78
2019-01-06T12:10:44.858Z,102770.20
2019-01-06T12:12:13.622Z,102768.89
2019-01-06T12:13:36.869Z,102770.45
2019-01-06T12:15:04.078Z,102765.74
2019-01-06T12:16:28.154Z,102767.05
2019-01-06T12:17:54.304Z,102759.47
2019-01-06T12:19:33.899Z,102763.84
2019-01-06T12:20:57.283Z,102757.73
2019-01-06T12:22:41.431Z,102760.74
2019-01-06T12:24:00.501Z,102764.60
2019-01-06T12:25:29.647Z,102754.03
2019-01-06T12:26:53.687Z,102758.28
2019-01-06T12:28:20.756Z,102756.00
2019-01-06T12:29:47.870Z,102753.09
2019-01-06T12:31:12.306Z,102755.64
2019-01-06T12:32:50.296Z,102758.32
2019-01-06T12:34:11.585Z,102755.05
2019-01-06T12:35:56.085Z,102751.55
2019-01-06T12:37:17.360Z,102749.88
2019-01-06T12:38:42.163Z,102752.69
2019-01-06T12:40:10.719Z,102752.33
2019-01-06T12:41:38.415Z,102757.02
2019-01-06T12:43:03.822Z,102755.27
2019-01-06T12:44:44.644Z,102753.15
2019-01-06T12:46:21.554Z,102751.45
2019-01-06T12:47:45.526Z,102754.30
2019-01-06T12:49:11.563Z,102750.11
2019-01-06T12:50:33.172Z,102750.95
2019-01-06T12:52:10.879Z,102752.49
2019-01-06T12:53:55.725Z,102754.20
2019-01-06T12:55:16.247Z,102758.77
2019-01-06T12:56:41.895Z,102757.56
2019-01-06T12:58:13.538Z,102758.91
2019-01-06T12:59:45.161Z,102749.97
2019-01-06T13:01:13.898Z,102752.92
2019-01-06T13:02:46.156Z,102753.51
2019-01-06T13:04:10.359Z,102756.45
2019-01-06T13:05:38.090Z,102754.06
2019-01-06T13:07:03.489Z,102759.86
2019-01-06T13:08:28.898Z,102762.34
2019-01-06T13:10:07.503Z,102761.78
2019-01-06T13:11:32.301Z,102763.94
2019-01-06T13:13:04.971Z,102764.57
2019-01-06T13:14:32.435Z,102762.44
2019-01-06T13:16:07.381Z,102758.72
2019-01-06T13:17:38.726Z,102760.45
2019-01-06T13:19:13.141Z,102765.32
2019-01-06T13:20:44.764Z,102760.61
2019-01-06T13:22:22.705Z,102762.83
2019-01-06T13:23:47.430Z,102761.66
2019-01-06T13:25:13.992Z,102760.02
2019-01-06T13:26:49.101Z,102757.99
2019-01-06T13:28:27.370Z,102756.20
2019-01-06T13:29:48.421Z,102763.84
2019-01-06T13:31:11.801Z,102761.82
2019-01-06T13:32:37.041Z,102766.77
2019-01-06T13:34:02.183Z,102768.11
2019-01-06T13:35:32.243Z,102771.87
2019-01-06T13:37:03.878Z,102766.34
2019-01-06T13:38:27.618Z,102771.80
2019-01-06T13:40:00.275Z,102772.59
2019-01-06T13:41:24.442Z,102775.59
2019-01-06T13:42:46.756Z,102772.29
2019-01-06T13:44:18.482Z,102772.36
2019-01-06T13:45:43.361Z,102771.14
2019-01-06T13:47:07.753Z,102777.62
2019-01-06T13:48:32.668Z,102774.23
2019-01-06T13:50:17.195Z,102771.31
2019-01-06T13:51:43.321Z,102777.23
2019-01-06T13:53:24.140Z,102776.31
2019-01-06T13:54:48.947Z,102778.87
2019-01-06T13:56:13.516Z,102777.59
2019-01-06T13:57:45.760Z,102774.98
2019-01-06T13:59:17.578Z,102780.94
2019-01-06T14:00:55.915Z,102785.02
2019-01-06T14:02:21.507Z,102782.02
2019-01-06T14:03:56.472Z,102782.02
2019-01-06T14:05:21.101Z,102778.05
2019-01-06T14:06:45.669Z,102777.69
2019-01-06T14:08:23.808Z,102778.61
2019-01-06T14:09:56.282Z,102774.03
2019-01-06T14:11:21.266Z,102782.86
2019-01-06T14:12:50.059Z,102786.48
2019-01-06T14:14:28.231Z,102783.61
2019-01-06T14:15:52.132Z,102785.34
2019-01-06T14:17:16.777Z,102786.52
2019-01-06T14:18:46.364Z,102788.39
2019-01-06T14:20:16.629Z,102790.80
2019-01-06T14:21:38.755Z,102792.11
2019-01-06T14:23:23.218Z,102792.47
2019-01-06T14:25:04.067Z,102795.55
2019-01-06T14:26:48.269Z,102788.15
2019-01-06T14:28:12.915Z,102787.86
2019-01-06T14:29:30.703Z,102791.59
2019-01-06T14:31:14.539Z,102792.12
2019-01-06T14:32:53.137Z,102787.87
2019-01-06T14:34:17.452Z,102793.78
2019-01-06T14:35:39.859Z,102784.81
2019-01-06T14:37:09.217Z,102789.50
2019-01-06T14:38:53.088Z,102793.21
2019-01-06T14:40:21.229Z,102795.73
2019-01-06T14:41:47.735Z,102792.93
2019-01-06T14:43:14.132Z,102796.37
2019-01-06T14:44:39.007Z,102796.76
2019-01-06T14:46:04.261Z,102790.41
2019-01-06T14:47:48.337Z,102792.39
2019-01-06T14:49:20.610Z,102794.48
2019-01-06T14:50:45.273Z,102792.52
2019-01-06T14:52:20.210Z,102793.80
2019-01-06T14:53:43.804Z,102804.23
2019-01-06T14:55:12.038Z,102799.95
2019-01-06T14:56:56.183Z,102808.56
2019-01-06T14:58:38.326Z,102804.73
2019-01-06T15:00:02.967Z,102807.25
2019-01-06T15:01:29.099Z,102805.44
2019-01-06T15:03:04.170Z,102799.02
2019-01-06T15:04:45.751Z,102808.84
2019-01-06T15:06:14.250Z,102808.33
2019-01-06T15:07:39.544Z,102807.83
2019-01-06T15:09:04.549Z,102813.27
2019-01-06T15:10:42.535Z,102812.00
2019-01-06T15:12:23.818Z,102814.62
2019-01-06T15:13:58.148Z,102814.16
2019-01-06T15:15:29.727Z,102815.97
2019-01-06T15:16:53.323Z,102819.36
2019-01-06T15:18:29.136Z,102819.10
2019-01-06T15:20:00.865Z,102821.27
2019-01-06T15:21:26.191Z,102818.33
2019-01-06T15:23:02.026Z,102819.18
2019-01-06T15:24:30.698Z,102820.61
2019-01-06T15:25:56.238Z,102814.55
2019-01-06T15:27:22.746Z,102822.28
2019-01-06T15:28:54.274Z,102820.11
2019-01-06T15:30:19.405Z,102823.98
2019-01-06T15:31:49.432Z,102824.83
2019-01-06T15:33:14.740Z,102821.30
2019-01-06T15:34:47.063Z,102823.86
2019-01-06T15:36:18.497Z,102823.39
2019-01-06T15:37:42.802Z,102828.06
2019-01-06T15:39:07.747Z,102830.95
2019-01-06T15:40:32.354Z,102830.75
2019-01-06T15:41:56.745Z,102830.41
2019-01-06T15:43:21.631Z,102837.63
2019-01-06T15:44:46.177Z,102840.26
2019-01-06T15:46:15.119Z,102839.75
2019-01-06T15:47:59.573Z,102840.77
2019-01-06T15:49:23.726Z,102834.91
2019-01-06T15:50:52.285Z,102840.34
2019-01-06T15:52:17.109Z,102841.95
2019-01-06T15:53:48.253Z,102844.55
2019-01-06T15:55:13.457Z,102843.74
2019-01-06T15:56:38.306Z,102847.40
2019-01-06T15:58:06.983Z,102844.84
2019-01-06T15:59:42.075Z,102846.13
2019-01-06T16:01:10.383Z,102844.50
2019-01-06T16:02:39.205Z,102854.58
2019-01-06T16:04:03.890Z,102849.83
2019-01-06T16:05:29.240Z,102851.14
2019-01-06T16:07:01.520Z,102847.20
2019-01-06T16:08:27.149Z,102851.91
2019-01-06T16:09:52.920Z,102854.03
2019-01-06T16:11:18.488Z,102852.88
2019-01-06T16:12:39.811Z,102852.84
2019-01-06T16:14:04.762Z,102854.07
2019-01-06T16:15:29.390Z,102859.20
2019-01-06T16:17:10.666Z,102857.05
2019-01-06T16:18:36.275Z,102857.05
2019-01-06T16:20:01.060Z,102859.34
2019-01-06T16:21:47.615Z,102851.69
2019-01-06T16:23:22.207Z,102852.11
2019-01-06T16:25:06.550Z,102860.02
2019-01-06T16:26:36.849Z,102862.65
2019-01-06T16:28:06.407Z,102865.58
2019-01-06T16:29:28.087Z,102863.88
2019-01-06T16:31:11.952Z,102861.77
2019-01-06T16:32:44.305Z,102857.73
2019-01-06T16:34:10.701Z,102862.48
2019-01-06T16:35:54.703Z,102866.64
2019-01-06T16:37:26.243Z,102862.77
2019-01-06T16:39:06.898Z,102862.27
2019-01-06T16:40:31.450Z,102861.29
2019-01-06T16:41:56.227Z,102866.00
2019-01-06T16:43:21.245Z,102862.22
2019-01-06T16:44:53.050Z,102863.50
2019-01-06T16:46:24.307Z,102866.05
2019-01-06T16:47:51.943Z,102867.19
2019-01-06T16:49:24.676Z,102866.81
2019-01-06T16:50:49.542Z,102868.50
2019-01-06T16:52:20.691Z,102861.72
2019-01-06T16:53:58.420Z,102868.17
2019-01-06T16:55:24.320Z,102865.06
2019-01-06T16:57:06.395Z,102864.27
2019-01-06T16:58:34.757Z,102861.24
2019-01-06T16:59:59.361Z,102862.18
2019-01-06T17:01:40.349Z,102865.53
2019-01-06T17:03:14.818Z,102860.27